Aviation Digital Data Service (ADDS)

Output produced by METARs form (1231 UTC 15 November 2018)
found at http://www.aviationweather.gov/metar/data/
 
TAF MKJP 151115Z 1512/1612 34005KT 9999 FEW024 
     BECMG 1514/1516 16012KT SCT020 FEW022CB 
     PROB40 
     TEMPO 1519/1523 SHRA SCT018 SCT020CB 
     BECMG 1600/1602 35005KT FEW020 FEW022CB
       
TAF MKJS 151115Z 1512/1612 13005KT 9999 FEW020 FEW022CB 
     BECMG 1514/1516 07015KT 
     PROB40 
     TEMPO 1519/1523 SHRA SCT018 SCT020CB 
     BECMG 1600/1602 14005KT